Time;durP1;ratioP1;P1;durP2;ratioP2;P2;SDS_P1;SDS_P2;PMS_P1;PMS_P2;Temp;Humidity;BMP_temperature;BMP_pressure;BME280_temperature;BME280_humidity;BME280_pressure;Samples;Min_cycle;Max_cycle;Signal;HPM_P1;HPM_P2
2022/12/18 00:01:05;;;;;;;5.32;4.03;;;;;;;14.33;41.66;94286.91;4987302;28;20042;-88
2022/12/18 00:03:34;;;;;;;6.22;4.50;;;;;;;14.41;41.14;94299.00;5018735;28;20031;-90
2022/12/18 00:05:59;;;;;;;7.85;4.60;;;;;;;14.37;41.57;94301.84;4986680;28;20114;-87
2022/12/18 00:08:24;;;;;;;5.85;4.53;;;;;;;14.35;41.64;94287.22;5002371;28;20057;-89
2022/12/18 00:10:50;;;;;;;6.20;4.30;;;;;;;14.38;41.40;94294.44;4987081;28;20039;-89
2022/12/18 00:13:15;;;;;;;6.43;4.15;;;;;;;14.37;41.55;94287.50;4987089;28;20047;-88
2022/12/18 00:15:41;;;;;;;6.70;4.70;;;;;;;14.36;41.39;94294.16;5001945;28;20031;-89
2022/12/18 00:18:06;;;;;;;7.25;4.50;;;;;;;14.44;41.17;94295.34;5010586;28;20046;-88
2022/12/18 00:20:36;;;;;;;4.75;4.13;;;;;;;14.40;41.32;94306.41;4986951;28;20066;-89
2022/12/18 00:23:01;;;;;;;6.45;4.10;;;;;;;14.36;41.66;94299.59;5003057;28;20109;-89
2022/12/18 00:25:27;;;;;;;5.95;3.78;;;;;;;14.39;41.48;94302.16;4985548;28;20054;-89
2022/12/18 00:27:52;;;;;;;6.03;4.65;;;;;;;14.42;41.41;94305.94;4986613;28;20086;-88
2022/12/18 00:30:17;;;;;;;6.20;3.95;;;;;;;14.37;41.40;94312.00;5002277;28;20378;-88
2022/12/18 00:32:43;;;;;;;6.13;3.90;;;;;;;14.38;41.24;94303.38;4986128;28;20035;-89
2022/12/18 00:35:08;;;;;;;6.20;4.18;;;;;;;14.39;41.20;94304.88;4985463;28;20058;-88
2022/12/18 00:37:34;;;;;;;6.97;4.30;;;;;;;14.38;41.12;94306.09;4986822;28;20524;-88
2022/12/18 00:39:59;;;;;;;6.13;4.32;;;;;;;14.36;41.71;94319.41;5036833;28;20489;-89
2022/12/18 00:45:09;;;;;;;5.60;4.13;;;;;;;14.37;41.31;94322.88;4997752;28;20175;-88
2022/12/18 00:47:34;;;;;;;5.60;3.88;;;;;;;14.32;41.44;94321.53;5002340;28;20080;-90
2022/12/18 00:50:00;;;;;;;5.68;3.70;;;;;;;14.30;41.45;94321.22;4985881;28;20117;-87
2022/12/18 00:52:25;;;;;;;6.15;4.03;;;;;;;14.30;41.07;94331.34;5018732;28;20097;-90
2022/12/18 00:54:51;;;;;;;4.72;3.85;;;;;;;14.30;41.63;94331.34;5010408;28;20042;-88
2022/12/18 00:57:16;;;;;;;5.80;4.03;;;;;;;14.32;41.47;94326.97;5005743;28;20501;-88
2022/12/18 00:59:42;;;;;;;5.60;4.30;;;;;;;14.35;41.36;94319.84;4990057;28;20057;-88
2022/12/18 01:02:08;;;;;;;5.88;4.30;;;;;;;14.36;41.08;94324.84;4984860;28;20035;-89
2022/12/18 01:04:33;;;;;;;6.70;4.07;;;;;;;14.37;41.52;94325.59;5018612;28;20493;-88
2022/12/18 01:06:58;;;;;;;6.47;4.10;;;;;;;14.32;41.13;94337.84;4985858;28;20046;-89
2022/12/18 01:09:24;;;;;;;5.82;4.35;;;;;;;14.32;41.61;94337.84;5001537;28;20072;-88
2022/12/18 01:11:49;;;;;;;5.15;3.95;;;;;;;14.29;41.42;94338.03;5002481;28;20034;-88
2022/12/18 01:14:15;;;;;;;6.45;4.07;;;;;;;14.29;41.19;94344.19;5001329;28;20122;-90
2022/12/18 01:16:40;;;;;;;6.55;4.15;;;;;;;14.30;41.29;94358.56;4986133;28;20044;-88
2022/12/18 01:19:06;;;;;;;6.20;4.10;;;;;;;14.35;41.41;94366.09;5001651;28;20523;-89
2022/12/18 01:21:32;;;;;;;5.20;3.75;;;;;;;14.33;40.82;94354.91;5001877;28;20055;-89
2022/12/18 01:23:57;;;;;;;9.25;4.18;;;;;;;14.32;41.18;94359.59;5002105;28;20085;-88
2022/12/18 01:26:23;;;;;;;6.22;3.63;;;;;;;14.34;41.74;94362.63;4968052;28;20047;-88
2022/12/18 01:28:49;;;;;;;5.75;3.95;;;;;;;14.34;41.21;94354.47;5001349;28;20413;-90
2022/12/18 01:31:18;;;;;;;6.05;4.07;;;;;;;14.34;41.49;94349.03;5001749;28;20039;-89
2022/12/18 01:33:44;;;;;;;4.95;3.45;;;;;;;14.29;41.33;94362.50;5018345;28;20193;-88
2022/12/18 01:36:16;;;;;;;6.18;4.10;;;;;;;14.32;41.09;94350.69;4984593;28;20133;-88
2022/12/18 01:38:42;;;;;;;4.45;3.67;;;;;;;14.32;41.23;94354.16;5017734;28;20061;-89
2022/12/18 01:41:08;;;;;;;4.60;3.45;;;;;;;14.33;41.05;94352.94;5001462;28;20066;-88
2022/12/18 01:43:48;;;;;;;6.57;4.03;;;;;;;14.36;40.96;94352.03;5017978;28;20035;-88
2022/12/18 01:46:14;;;;;;;4.55;3.38;;;;;;;14.34;40.92;94354.47;5018156;28;20059;-90
2022/12/18 01:48:39;;;;;;;5.40;3.78;;;;;;;14.35;40.88;94357.94;4985507;28;20508;-92
2022/12/18 01:51:05;;;;;;;5.90;4.15;;;;;;;14.34;41.10;94364.59;5000676;28;20035;-89
2022/12/18 01:53:35;;;;;;;5.05;3.53;;;;;;;14.33;41.51;94366.56;5001449;28;20039;-88
2022/12/18 01:56:00;;;;;;;4.78;3.55;;;;;;;14.32;41.18;94364.28;4985575;28;20038;-88
2022/12/18 01:58:48;;;;;;;4.70;3.20;;;;;;;14.35;41.32;94366.84;4984090;28;20101;-89
2022/12/18 02:01:14;;;;;;;4.85;3.72;;;;;;;14.39;40.86;94363.97;4984949;28;20054;-89
2022/12/18 02:03:42;;;;;;;4.82;3.47;;;;;;;14.34;41.05;94356.44;4984375;28;20038;-89
2022/12/18 02:06:15;;;;;;;6.15;4.10;;;;;;;14.33;41.20;94361.09;4984499;28;20042;-89
2022/12/18 02:08:47;;;;;;;4.82;3.72;;;;;;;14.35;41.05;94349.78;5017507;28;20134;-89
2022/12/18 02:11:39;;;;;;;5.28;3.45;;;;;;;14.37;41.17;94367.13;5017218;28;20517;-88
2022/12/18 02:14:14;;;;;;;4.85;3.47;;;;;;;14.37;40.80;94360.94;4983246;28;20079;-88
2022/12/18 02:16:57;;;;;;;4.97;3.35;;;;;;;14.33;41.27;94360.34;5007120;28;20034;-89
2022/12/18 02:19:42;;;;;;;4.80;3.55;;;;;;;14.36;41.08;94364.88;4983211;28;20170;-88
2022/12/18 02:22:10;;;;;;;5.80;3.80;;;;;;;14.34;41.45;94362.63;4999705;28;20465;-88
2022/12/18 02:24:59;;;;;;;3.90;2.90;;;;;;;14.35;41.26;94355.97;5001879;28;20122;-88
2022/12/18 02:27:24;;;;;;;3.97;3.53;;;;;;;14.33;40.55;94366.56;5026100;28;20045;-89
2022/12/18 02:29:50;;;;;;;4.57;3.33;;;;;;;14.35;40.96;94355.22;5048908;28;20039;-88
2022/12/18 02:32:19;;;;;;;3.45;2.80;;;;;;;14.31;41.34;94360.06;5017251;28;20421;-88
2022/12/18 02:34:45;;;;;;;4.63;3.30;;;;;;;14.33;40.34;94352.94;5017484;28;20133;-89
2022/12/18 02:37:12;;;;;;;5.57;3.78;;;;;;;14.32;40.85;94369.72;4984469;28;20555;-88
2022/12/18 02:39:38;;;;;;;5.40;3.60;;;;;;;14.32;40.98;94367.00;5020559;28;20096;-89
2022/12/18 02:42:07;;;;;;;4.43;3.58;;;;;;;14.34;40.87;94375.47;5004297;28;20520;-88
2022/12/18 02:44:34;;;;;;;4.68;3.40;;;;;;;14.33;41.06;94366.56;5004322;28;20039;-89
2022/12/18 02:46:59;;;;;;;4.75;3.42;;;;;;;14.34;41.05;94376.22;5004744;28;20382;-88
2022/12/18 02:49:53;;;;;;;4.40;2.90;;;;;;;14.36;41.10;94373.78;4987943;28;20046;-89
2022/12/18 02:52:29;;;;;;;3.78;2.72;;;;;;;14.37;40.86;94369.84;5002291;28;20609;-90
2022/12/18 02:55:00;;;;;;;4.93;3.60;;;;;;;14.38;41.06;94373.34;5007219;28;20404;-89
2022/12/18 02:57:39;;;;;;;4.20;3.00;;;;;;;14.38;41.04;94373.34;5003863;28;20057;-88
2022/12/18 03:00:23;;;;;;;4.68;3.50;;;;;;;14.35;40.94;94366.84;5019832;28;20050;-88
2022/12/18 03:02:53;;;;;;;4.82;3.28;;;;;;;14.35;40.95;94357.94;5018320;28;20043;-88
2022/12/18 03:05:21;;;;;;;4.32;3.28;;;;;;;14.33;40.86;94365.78;5003460;28;20485;-89
2022/12/18 03:07:51;;;;;;;5.70;4.10;;;;;;;14.34;41.03;94362.63;5020817;28;20053;-88
2022/12/18 03:10:19;;;;;;;4.00;3.20;;;;;;;14.31;41.30;94365.50;5019908;28;20066;-89
2022/12/18 03:12:49;;;;;;;4.63;2.97;;;;;;;14.33;40.94;94374.72;5004218;28;20238;-90
2022/12/18 03:15:19;;;;;;;3.83;2.88;;;;;;;14.35;40.76;94374.25;5002825;28;20047;-88
2022/12/18 03:17:48;;;;;;;3.88;3.00;;;;;;;14.34;40.75;94375.47;5030199;28;20070;-88
2022/12/18 03:20:15;;;;;;;3.88;2.83;;;;;;;14.38;40.80;94370.63;5004956;28;20042;-90
2022/12/18 03:22:41;;;;;;;4.82;3.35;;;;;;;14.36;41.10;94359.44;4987339;28;20042;-88
2022/12/18 03:25:08;;;;;;;4.35;3.60;;;;;;;14.36;40.64;94360.19;4987465;28;20061;-89
2022/12/18 03:27:34;;;;;;;3.72;2.60;;;;;;;14.35;40.87;94355.97;5028167;28;20053;-88
2022/12/18 03:30:07;;;;;;;5.07;3.17;;;;;;;14.37;40.81;94369.09;5053746;28;20042;-88
2022/12/18 03:32:42;;;;;;;5.95;3.60;;;;;;;14.37;40.63;94358.22;5017699;28;20047;-89
2022/12/18 03:35:08;;;;;;;4.88;2.90;;;;;;;14.34;40.70;94368.06;5019265;28;20105;-88
2022/12/18 03:37:33;;;;;;;5.30;3.30;;;;;;;14.33;40.71;94373.94;4987721;28;20045;-88
2022/12/18 03:39:59;;;;;;;5.25;3.30;;;;;;;14.31;40.51;94363.53;4979752;28;20086;-90
2022/12/18 03:42:32;;;;;;;3.67;2.53;;;;;;;14.31;40.76;94370.94;5002463;28;20047;-88
2022/12/18 03:45:02;;;;;;;4.00;2.70;;;;;;;14.32;40.97;94367.75;5004299;28;20049;-88
2022/12/18 03:47:31;;;;;;;4.03;2.83;;;;;;;14.34;40.74;94364.59;4986354;28;20046;-89
2022/12/18 03:50:15;;;;;;;4.35;2.60;;;;;;;14.33;41.03;94371.25;5002851;28;20425;-88
2022/12/18 03:52:55;;;;;;;4.50;2.85;;;;;;;14.29;40.98;94374.13;5003254;28;20034;-89
2022/12/18 03:55:20;;;;;;;4.13;2.72;;;;;;;14.28;40.92;94375.34;5024596;28;20046;-88
2022/12/18 03:57:45;;;;;;;4.15;2.78;;;;;;;14.31;40.59;94370.94;4986997;28;20043;-87
2022/12/18 04:00:12;;;;;;;3.83;2.63;;;;;;;14.32;40.68;94383.31;4986183;28;20039;-90
2022/12/18 04:02:38;;;;;;;4.13;3.03;;;;;;;14.30;40.97;94383.03;5020082;28;20035;-88
2022/12/18 04:05:04;;;;;;;4.07;2.88;;;;;;;14.31;40.71;94388.00;4985835;28;20035;-88
2022/12/18 04:07:30;;;;;;;3.70;2.70;;;;;;;14.27;40.80;94383.97;5003640;28;20098;-88
2022/12/18 04:09:56;;;;;;;3.70;2.63;;;;;;;14.25;40.97;94381.72;5003256;28;20059;-89
2022/12/18 04:12:24;;;;;;;3.42;2.55;;;;;;;14.27;40.92;94386.69;5019001;28;20116;-89
2022/12/18 04:14:50;;;;;;;3.92;2.65;;;;;;;14.27;40.95;94373.84;4986566;28;20031;-89
2022/12/18 04:17:16;;;;;;;3.65;2.58;;;;;;;14.31;40.86;94387.25;5019821;28;20457;-89
2022/12/18 04:19:41;;;;;;;3.70;2.60;;;;;;;14.29;40.75;94389.72;4986415;28;20039;-89
2022/12/18 04:22:09;;;;;;;4.72;2.90;;;;;;;14.29;40.61;94393.16;5002044;28;20481;-89
2022/12/18 04:24:34;;;;;;;3.50;2.83;;;;;;;14.33;40.97;94398.44;4986752;28;20050;-89
2022/12/18 04:27:00;;;;;;;3.42;2.40;;;;;;;14.33;40.81;94409.31;4985942;28;20039;-89
2022/12/18 04:29:25;;;;;;;3.63;2.80;;;;;;;14.30;40.63;94399.34;4985808;28;20042;-89
2022/12/18 04:31:50;;;;;;;4.90;3.13;;;;;;;14.28;41.01;94401.81;5019090;28;20038;-90
2022/12/18 04:34:16;;;;;;;4.15;2.67;;;;;;;14.27;40.69;94401.03;4985577;28;20135;-89
2022/12/18 04:36:41;;;;;;;3.88;2.63;;;;;;;14.30;40.44;94407.50;4986189;28;20101;-89
2022/12/18 04:39:07;;;;;;;3.60;2.30;;;;;;;14.33;40.75;94415.50;5001859;28;20516;-88
2022/12/18 04:41:35;;;;;;;4.38;2.85;;;;;;;14.31;40.80;94414.47;5002198;28;20035;-88
2022/12/18 04:44:00;;;;;;;4.40;2.85;;;;;;;14.31;40.64;94409.78;4985165;28;20047;-88
2022/12/18 04:46:26;;;;;;;3.50;2.53;;;;;;;14.27;40.62;94414.66;4985747;28;20045;-88
2022/12/18 04:48:51;;;;;;;3.40;2.38;;;;;;;14.32;40.55;94403.13;4986364;28;20401;-89
2022/12/18 04:51:16;;;;;;;3.35;2.42;;;;;;;14.30;40.66;94402.06;5001029;28;20512;-88
2022/12/18 04:53:42;;;;;;;3.22;2.67;;;;;;;14.31;40.60;94403.56;5002710;28;20043;-88
2022/12/18 04:56:11;;;;;;;2.97;2.25;;;;;;;14.32;40.57;94410.53;5012136;28;20405;-89
2022/12/18 04:58:37;;;;;;;4.30;2.90;;;;;;;14.31;40.70;94407.06;5018841;28;20203;-88
2022/12/18 05:01:03;;;;;;;3.53;2.50;;;;;;;14.31;40.33;94398.88;5001378;28;20039;-90
2022/12/18 05:03:28;;;;;;;3.60;2.53;;;;;;;14.32;40.71;94405.84;4984854;28;20042;-89
2022/12/18 05:05:54;;;;;;;3.38;2.42;;;;;;;14.32;40.63;94403.13;4986021;28;20222;-89
2022/12/18 05:08:19;;;;;;;4.57;2.95;;;;;;;14.30;40.73;94415.66;4985443;28;20445;-90
2022/12/18 05:10:45;;;;;;;3.92;2.60;;;;;;;14.31;41.14;94417.94;4985146;28;20105;-89
2022/12/18 05:13:10;;;;;;;3.65;2.72;;;;;;;14.31;40.33;94417.19;4985107;28;20086;-89
2022/12/18 05:15:35;;;;;;;3.92;2.53;;;;;;;14.32;40.79;94416.72;4985182;28;20384;-88
2022/12/18 05:18:01;;;;;;;2.67;2.17;;;;;;;14.29;40.77;94427.78;5002261;28;20121;-89
2022/12/18 05:20:27;;;;;;;3.22;2.30;;;;;;;14.30;41.05;94432.00;5000672;28;20038;-89
2022/12/18 05:22:52;;;;;;;4.03;3.00;;;;;;;14.27;40.72;94430.97;4969556;28;20054;-89
2022/12/18 05:25:18;;;;;;;3.08;2.50;;;;;;;14.30;40.30;94437.44;4985238;28;20043;-89
2022/12/18 05:27:44;;;;;;;3.75;2.83;;;;;;;14.33;40.49;94439.22;5001885;28;20477;-89
2022/12/18 05:30:11;;;;;;;2.90;2.30;;;;;;;14.30;40.35;94438.19;5017723;28;20038;-88
2022/12/18 05:32:37;;;;;;;3.40;2.65;;;;;;;14.32;40.50;94432.28;4985098;28;20559;-88
2022/12/18 05:35:03;;;;;;;3.53;2.42;;;;;;;14.34;40.30;94429.88;5017775;28;20046;-90
2022/12/18 05:37:28;;;;;;;3.35;2.17;;;;;;;14.33;40.38;94431.06;4984459;28;20070;-88
2022/12/18 05:39:54;;;;;;;3.13;2.20;;;;;;;14.30;40.91;94437.44;4985679;28;20508;-89
2022/12/18 05:42:19;;;;;;;3.83;2.50;;;;;;;14.29;40.33;94444.09;4984746;28;20038;-88
2022/12/18 05:44:45;;;;;;;2.63;2.10;;;;;;;14.24;40.54;94437.31;4985969;28;20278;-89
2022/12/18 05:47:11;;;;;;;3.25;2.25;;;;;;;14.25;40.36;94444.25;4985364;28;20046;-90
2022/12/18 05:49:37;;;;;;;3.65;2.58;;;;;;;14.27;40.55;94435.66;4984274;28;20046;-87
2022/12/18 05:52:02;;;;;;;3.40;2.38;;;;;;;14.30;40.43;94440.91;4985311;28;20039;-90
2022/12/18 05:54:28;;;;;;;2.85;2.10;;;;;;;14.31;40.46;94442.41;4989631;28;20037;-89
2022/12/18 05:56:53;;;;;;;2.80;2.20;;;;;;;14.32;40.59;94454.81;5009727;28;20104;-89
2022/12/18 05:59:19;;;;;;;2.80;2.17;;;;;;;14.33;40.48;94456.31;4985158;28;20038;-88
2022/12/18 06:01:44;;;;;;;3.13;2.38;;;;;;;14.31;40.43;94457.97;5001159;28;20054;-88
2022/12/18 06:04:10;;;;;;;3.10;2.22;;;;;;;14.28;40.36;94456.94;4984929;28;20493;-89
2022/12/18 06:06:35;;;;;;;2.83;2.47;;;;;;;14.30;40.08;94454.50;5001653;28;20412;-88
2022/12/18 06:09:01;;;;;;;3.03;2.25;;;;;;;14.31;40.19;94457.97;4985312;28;20050;-88
2022/12/18 06:11:26;;;;;;;2.05;1.80;;;;;;;14.31;40.44;94461.44;5000121;28;20049;-88
2022/12/18 06:13:53;;;;;;;2.78;2.20;;;;;;;14.32;40.37;94460.25;4988165;28;20529;-90
2022/12/18 06:16:18;;;;;;;2.72;2.03;;;;;;;14.29;40.47;94461.16;5004832;28;20053;-89
2022/12/18 06:18:44;;;;;;;2.58;1.92;;;;;;;14.27;40.71;94458.16;4996357;28;20409;-89
2022/12/18 06:21:09;;;;;;;3.22;1.90;;;;;;;14.26;40.47;94462.09;4988586;28;20043;-89
2022/12/18 06:23:35;;;;;;;2.90;2.28;;;;;;;14.26;40.62;94464.81;5005445;28;20048;-88
2022/12/18 06:26:05;;;;;;;3.70;2.05;;;;;;;14.29;40.46;94466.59;5004604;28;20041;-88
2022/12/18 06:28:31;;;;;;;3.28;1.98;;;;;;;14.26;40.28;94462.09;5004471;28;20408;-89
2022/12/18 06:30:56;;;;;;;3.15;2.17;;;;;;;14.30;40.59;94453.75;4989501;28;20034;-89
2022/12/18 06:33:22;;;;;;;2.67;2.08;;;;;;;14.27;40.53;94458.16;5004579;28;20054;-88
2022/12/18 06:35:47;;;;;;;3.63;2.08;;;;;;;14.25;40.33;94446.22;4988318;28;20049;-88
2022/12/18 06:38:12;;;;;;;2.80;1.90;;;;;;;14.28;40.59;94459.66;5020991;28;20046;-88
2022/12/18 06:40:38;;;;;;;3.13;2.00;;;;;;;14.30;40.73;94470.06;4987672;28;20042;-89
2022/12/18 06:43:04;;;;;;;4.03;2.60;;;;;;;14.31;40.12;94471.56;5004657;28;20039;-90
2022/12/18 06:45:31;;;;;;;2.92;1.77;;;;;;;14.28;40.03;94469.78;5004733;28;20045;-88
2022/12/18 06:47:56;;;;;;;3.15;2.17;;;;;;;14.26;40.61;94474.94;4988236;28;20050;-91
2022/12/18 06:50:21;;;;;;;2.47;1.98;;;;;;;14.26;40.23;94472.97;5004877;28;20047;-88
2022/12/18 06:52:47;;;;;;;1.98;1.77;;;;;;;14.26;40.55;94483.84;4987926;28;20370;-88
2022/12/18 06:55:12;;;;;;;3.55;2.20;;;;;;;14.25;40.14;94485.06;4982795;28;20085;-89
2022/12/18 06:57:38;;;;;;;2.40;1.65;;;;;;;14.28;40.31;94486.13;5010568;28;20093;-89
2022/12/18 07:00:05;;;;;;;2.80;1.77;;;;;;;14.25;40.73;94495.94;4987842;28;20106;-87
2022/12/18 07:02:30;;;;;;;2.10;1.88;;;;;;;14.30;40.33;94499.97;4987458;28;20041;-88
2022/12/18 07:04:56;;;;;;;2.50;2.05;;;;;;;14.28;40.12;94503.19;4988094;28;20464;-89
2022/12/18 07:07:21;;;;;;;2.80;2.03;;;;;;;14.32;40.22;94505.72;5020399;28;20081;-88
2022/12/18 07:09:46;;;;;;;2.78;1.88;;;;;;;14.32;40.29;94503.00;4988026;28;20285;-91
2022/12/18 07:12:13;;;;;;;2.83;1.90;;;;;;;14.31;40.29;94504.22;4987229;28;20054;-89
2022/12/18 07:14:38;;;;;;;2.47;1.75;;;;;;;14.30;40.31;94514.34;4987798;28;20385;-88
2022/12/18 07:17:03;;;;;;;1.88;1.65;;;;;;;14.32;40.30;94513.88;4990837;28;20045;-89
2022/12/18 07:19:29;;;;;;;2.97;2.08;;;;;;;14.34;40.00;94516.91;5009490;28;20058;-88
2022/12/18 07:21:54;;;;;;;3.03;2.22;;;;;;;14.33;40.50;94515.38;5004082;28;20039;-88
2022/12/18 07:24:20;;;;;;;1.95;1.48;;;;;;;14.32;40.18;94514.63;4987055;28;20400;-90
2022/12/18 07:26:46;;;;;;;3.05;2.15;;;;;;;14.36;39.91;94512.50;5003943;28;20031;-88
2022/12/18 07:29:11;;;;;;;2.72;1.90;;;;;;;14.33;40.11;94520.84;5020065;28;20035;-88
2022/12/18 07:31:37;;;;;;;2.80;1.73;;;;;;;14.29;40.15;94509.38;4987296;28;20046;-89
2022/12/18 07:34:02;;;;;;;1.60;1.50;;;;;;;14.31;40.35;94509.66;4987821;28;20039;-89
2022/12/18 07:36:27;;;;;;;3.17;2.08;;;;;;;14.34;40.21;94509.50;4987579;28;20034;-88
2022/12/18 07:38:53;;;;;;;2.75;1.92;;;;;;;14.37;40.20;94508.59;4987303;28;20560;-89
2022/12/18 07:41:18;;;;;;;2.67;2.03;;;;;;;14.37;40.46;94511.31;5002696;28;20074;-88
2022/12/18 07:43:45;;;;;;;2.33;1.80;;;;;;;14.37;40.21;94516.00;4987499;28;20064;-89
2022/12/18 07:46:10;;;;;;;2.28;1.75;;;;;;;14.33;40.31;94518.88;5019437;28;20062;-89
2022/12/18 07:48:36;;;;;;;2.72;1.92;;;;;;;14.30;40.12;94522.50;4987456;28;20089;-88
2022/12/18 07:51:03;;;;;;;2.47;1.90;;;;;;;14.34;40.37;94531.25;4987336;28;20098;-89
2022/12/18 07:53:29;;;;;;;2.75;1.95;;;;;;;14.37;40.31;94533.06;5025900;28;20031;-89
2022/12/18 07:55:58;;;;;;;1.85;1.60;;;;;;;14.34;40.24;94535.94;5004755;28;20624;-89
2022/12/18 07:58:24;;;;;;;2.35;1.70;;;;;;;14.35;40.35;94543.66;4988856;28;20090;-89
2022/12/18 08:00:49;;;;;;;2.42;1.58;;;;;;;14.35;40.27;94534.72;4987279;28;20057;-91
2022/12/18 08:03:15;;;;;;;2.78;2.05;;;;;;;14.38;40.24;94539.25;4986029;28;20043;-89
2022/12/18 08:05:40;;;;;;;3.08;1.80;;;;;;;14.37;39.88;94522.19;5002994;28;20493;-89
2022/12/18 08:08:05;;;;;;;2.40;1.80;;;;;;;14.36;40.25;94528.84;5020496;28;20046;-90
2022/12/18 08:10:31;;;;;;;2.78;2.17;;;;;;;14.36;40.10;94536.25;4987762;28;20095;-91
2022/12/18 08:12:56;;;;;;;2.20;1.63;;;;;;;14.36;40.12;94537.00;4995154;28;20038;-89
2022/12/18 08:15:22;;;;;;;2.28;1.63;;;;;;;14.38;39.92;94536.53;4988321;28;20066;-91
2022/12/18 08:17:47;;;;;;;2.00;1.52;;;;;;;14.43;39.88;94521.59;4986534;28;20031;-89
2022/12/18 08:20:14;;;;;;;4.38;1.85;;;;;;;14.45;39.70;94530.06;5003117;28;20043;-89
2022/12/18 08:22:41;;;;;;;1.92;1.65;;;;;;;14.46;39.73;94535.06;4986554;28;20236;-88
2022/12/18 08:25:06;;;;;;;2.42;1.60;;;;;;;14.44;39.84;94531.28;4987756;28;20109;-88
2022/12/18 08:27:32;;;;;;;1.65;1.35;;;;;;;14.48;39.64;94534.59;4986671;28;20094;-89
2022/12/18 08:29:57;;;;;;;2.53;1.70;;;;;;;14.45;39.91;94536.25;4986809;28;20069;-91
2022/12/18 08:32:23;;;;;;;2.42;1.67;;;;;;;14.46;40.09;94531.56;4986403;28;20541;-89
2022/12/18 08:34:49;;;;;;;2.25;1.98;;;;;;;14.52;39.46;94532.44;4985593;28;20043;-91
2022/12/18 08:37:14;;;;;;;3.30;1.85;;;;;;;14.47;39.52;94539.28;5002420;28;20038;-89
2022/12/18 08:39:39;;;;;;;2.88;1.80;;;;;;;14.49;40.07;94542.31;4986249;28;20428;-92
2022/12/18 08:44:49;;;;;;;2.00;1.45;;;;;;;14.51;39.86;94547.25;5011785;28;20097;-89
2022/12/18 08:47:14;;;;;;;1.85;1.50;;;;;;;14.48;39.78;94543.50;5002531;28;20043;-89
2022/12/18 08:49:40;;;;;;;2.15;1.48;;;;;;;14.49;39.67;94544.25;4985961;28;20050;-89
2022/12/18 08:52:05;;;;;;;2.25;1.80;;;;;;;14.50;39.68;94549.25;5002735;28;20032;-90
2022/12/18 08:54:31;;;;;;;2.05;1.63;;;;;;;14.58;39.53;94544.97;4985335;28;20050;-89
2022/12/18 08:56:56;;;;;;;1.67;1.35;;;;;;;14.55;39.62;94536.97;5003545;28;20027;-90
2022/12/18 08:59:23;;;;;;;2.38;1.70;;;;;;;14.53;39.75;94536.69;4988812;28;20055;-88
2022/12/18 09:01:48;;;;;;;2.53;2.00;;;;;;;14.54;39.85;94538.94;4987030;28;20054;-91
2022/12/18 09:04:13;;;;;;;2.78;1.92;;;;;;;14.54;40.03;94536.22;5001889;28;20050;-88
2022/12/18 09:06:39;;;;;;;2.00;1.40;;;;;;;14.56;39.64;94541.97;5002177;28;20043;-88
2022/12/18 09:09:04;;;;;;;2.10;1.70;;;;;;;14.55;39.65;94543.16;5002126;28;20197;-90
2022/12/18 09:11:30;;;;;;;1.83;1.30;;;;;;;14.57;39.79;94542.72;4986531;28;20049;-88
2022/12/18 09:13:56;;;;;;;2.17;1.60;;;;;;;14.58;39.71;94546.94;4985778;28;20089;-91
2022/12/18 09:16:21;;;;;;;2.25;1.58;;;;;;;14.55;39.90;94537.72;5017988;28;20142;-89
2022/12/18 09:18:47;;;;;;;2.55;1.65;;;;;;;14.57;40.02;94538.03;5003221;28;20050;-89
2022/12/18 09:21:15;;;;;;;2.28;1.63;;;;;;;14.56;39.97;94541.19;5002188;28;20034;-88
2022/12/18 09:23:42;;;;;;;2.42;1.50;;;;;;;14.55;39.50;94526.09;5001628;28;20034;-90
2022/12/18 09:26:07;;;;;;;1.98;1.52;;;;;;;14.55;39.72;94545.88;5001545;28;20053;-90
2022/12/18 09:28:36;;;;;;;1.52;1.42;;;;;;;14.56;40.10;94543.94;5001732;28;20042;-90
2022/12/18 09:31:06;;;;;;;2.22;1.50;;;;;;;14.60;39.73;94539.09;5001608;28;20117;-89
2022/12/18 09:33:34;;;;;;;2.05;1.42;;;;;;;14.61;40.05;94554.94;4953878;28;20526;-92
2022/12/18 09:36:01;;;;;;;1.65;1.48;;;;;;;14.59;39.75;94543.00;4984724;28;20038;-90
2022/12/18 09:38:27;;;;;;;1.77;1.30;;;;;;;14.66;39.94;94545.41;5001969;28;20050;-90
2022/12/18 09:40:53;;;;;;;1.70;1.27;;;;;;;14.68;39.91;94551.91;4985394;28;20488;-89
2022/12/18 09:43:24;;;;;;;2.00;1.60;;;;;;;14.68;39.50;94549.19;4985139;28;20125;-90
2022/12/18 09:45:53;;;;;;;1.95;1.38;;;;;;;14.67;39.48;94553.13;4984760;28;20054;-89
2022/12/18 09:48:25;;;;;;;1.73;1.25;;;;;;;14.63;39.88;94549.81;5001530;28;20050;-89
2022/12/18 09:50:50;;;;;;;1.80;1.40;;;;;;;14.64;40.24;94547.84;5001650;28;20038;-89
2022/12/18 09:53:20;;;;;;;1.83;1.42;;;;;;;14.62;39.78;94540.13;5000421;28;20094;-89
2022/12/18 09:55:45;;;;;;;1.85;1.50;;;;;;;14.64;39.92;94545.13;4987683;28;20073;-88
2022/12/18 09:58:20;;;;;;;1.63;1.40;;;;;;;14.65;39.85;94541.94;4977423;28;20105;-89
2022/12/18 10:00:46;;;;;;;1.95;1.33;;;;;;;14.63;39.70;94541.66;5013675;28;20148;-91
2022/12/18 10:03:13;;;;;;;1.92;1.73;;;;;;;14.68;39.76;94540.28;5002020;28;20042;-90
2022/12/18 10:05:53;;;;;;;1.77;1.48;;;;;;;14.66;39.62;94529.84;5015865;28;20081;-89
2022/12/18 10:08:23;;;;;;;1.65;1.30;;;;;;;14.71;39.42;94533.91;5005796;28;20411;-89
2022/12/18 10:10:56;;;;;;;1.83;1.40;;;;;;;14.70;40.04;94532.41;4986970;28;20050;-91
2022/12/18 10:13:30;;;;;;;2.15;1.50;;;;;;;14.70;39.54;94524.25;5016180;28;20440;-91
2022/12/18 10:16:08;;;;;;;2.03;1.40;;;;;;;14.67;39.55;94525.91;5015013;28;20081;-89
2022/12/18 10:19:04;;;;;;;2.50;1.40;;;;;;;14.69;39.78;94520.75;4973425;28;20129;-88
2022/12/18 10:21:47;;;;;;;2.58;1.40;;;;;;;14.68;39.70;94521.97;5010525;28;20038;-91
2022/12/18 10:24:19;;;;;;;4.93;2.10;;;;;;;14.72;39.68;94525.25;4986565;28;20125;-90
2022/12/18 10:26:44;;;;;;;4.10;2.00;;;;;;;14.70;39.43;94530.44;5019688;28;20473;-90
2022/12/18 10:29:13;;;;;;;5.32;2.10;;;;;;;14.69;40.00;94528.94;5019656;28;20083;-89
2022/12/18 10:31:39;;;;;;;11.80;2.75;;;;;;;14.69;39.69;94530.91;5003178;28;20420;-91
2022/12/18 10:34:08;;;;;;;4.57;2.33;;;;;;;14.72;39.67;94519.81;5019248;28;20051;-89
2022/12/18 10:36:33;;;;;;;12.10;4.15;;;;;;;14.74;39.48;94525.56;5002013;28;20054;-90
2022/12/18 10:39:14;;;;;;;37.28;17.50;;;;;;;14.72;39.82;94513.66;4980450;28;20031;-90
2022/12/18 10:41:40;;;;;;;39.85;19.85;;;;;;;14.72;39.80;94500.03;4965333;28;20039;-89
2022/12/18 10:44:18;;;;;;;61.78;23.58;;;;;;;14.71;39.73;94504.72;4981266;28;20039;-89
2022/12/18 10:46:45;;;;;;;70.07;28.15;;;;;;;14.70;39.75;94497.78;4954750;28;20544;-88
2022/12/18 10:49:22;;;;;;;68.45;31.02;;;;;;;14.72;39.75;94500.03;4945877;28;20383;-88
2022/12/18 10:51:47;;;;;;;78.47;34.20;;;;;;;14.73;39.62;94493.38;4978260;28;20071;-88
2022/12/18 10:54:19;;;;;;;85.43;35.25;;;;;;;14.72;39.85;94495.31;4980940;28;20506;-89
2022/12/18 10:56:44;;;;;;;94.53;36.88;;;;;;;14.72;39.63;94491.88;4938016;28;20044;-90
2022/12/18 10:59:11;;;;;;;129.63;42.45;;;;;;;14.72;39.74;94489.88;4979687;28;20620;-88
2022/12/18 11:01:56;;;;;;;114.22;46.25;;;;;;;14.72;39.85;94492.59;4982081;28;20126;-90
2022/12/18 11:04:29;;;;;;;128.43;47.15;;;;;;;14.73;39.83;94483.22;4981754;28;20044;-89
2022/12/18 11:07:01;;;;;;;117.22;47.08;;;;;;;14.71;39.67;94487.66;4942266;28;20063;-89
2022/12/18 11:09:28;;;;;;;117.13;45.95;;;;;;;14.70;40.34;94486.13;4964633;28;20040;-89
2022/12/18 11:11:55;;;;;;;121.82;46.00;;;;;;;14.75;39.98;94488.22;4977476;28;20042;-89
2022/12/18 11:14:31;;;;;;;112.60;45.72;;;;;;;14.77;39.43;94485.03;4967803;28;20035;-89
2022/12/18 11:16:58;;;;;;;110.60;43.10;;;;;;;14.75;39.58;94491.69;4984263;28;20046;-90
2022/12/18 11:19:32;;;;;;;118.93;46.60;;;;;;;14.74;40.15;94484.75;4952331;28;20027;-90
2022/12/18 11:21:58;;;;;;;103.00;43.72;;;;;;;14.69;39.97;94482.66;4948666;28;20032;-88
2022/12/18 11:24:30;;;;;;;102.88;43.95;;;;;;;14.70;40.07;94477.97;4964445;28;20340;-89
2022/12/18 11:26:58;;;;;;;101.85;43.55;;;;;;;14.69;39.91;94482.66;4948663;28;20036;-89
2022/12/18 11:29:27;;;;;;;110.18;42.65;;;;;;;14.67;40.09;94470.72;4980333;28;20058;-89
2022/12/18 11:32:12;;;;;;;87.43;40.85;;;;;;;14.69;40.01;94469.06;4955966;28;20127;-89
2022/12/18 11:34:37;;;;;;;100.72;42.78;;;;;;;14.70;39.98;94454.25;4976421;28;20046;-89
2022/12/18 11:37:03;;;;;;;98.68;39.90;;;;;;;14.64;40.19;94456.06;4986950;28;20035;-89
2022/12/18 11:39:38;;;;;;;88.00;38.83;;;;;;;14.67;40.12;94462.56;4987134;28;20497;-88